createdAt,value
2019-04-25T00:01:16.107Z,100484.30
2019-04-25T00:03:46.666Z,100489.65
2019-04-25T00:06:17.767Z,100526.22
2019-04-25T00:08:48.110Z,100539.47
2019-04-25T00:11:18.874Z,100546.09
2019-04-25T00:13:49.321Z,100547.01
2019-04-25T00:16:21.620Z,100543.58
2019-04-25T00:18:51.994Z,100559.41
2019-04-25T00:21:28.944Z,100561.20
2019-04-25T00:24:05.095Z,100559.10
2019-04-25T00:26:48.558Z,100557.87
2019-04-25T00:29:19.049Z,100560.11
2019-04-25T00:31:49.496Z,100551.77
2019-04-25T00:34:19.845Z,100557.48
2019-04-25T00:36:51.517Z,100554.84
2019-04-25T00:39:25.104Z,100570.66
2019-04-25T00:41:55.731Z,100569.80
2019-04-25T00:44:26.039Z,100579.95
2019-04-25T00:46:56.869Z,100586.18
2019-04-25T00:49:27.412Z,100586.77
2019-04-25T00:51:57.789Z,100583.36
2019-04-25T00:54:28.102Z,100582.13
2019-04-25T00:56:58.432Z,100583.98
2019-04-25T00:59:46.929Z,100591.96
2019-04-25T01:02:31.287Z,100581.10
2019-04-25T01:05:02.001Z,100583.41
2019-04-25T01:07:34.469Z,100582.18
2019-04-25T01:10:05.720Z,100576.56
2019-04-25T01:12:36.299Z,100575.27
2019-04-25T01:15:08.518Z,100571.39
2019-04-25T01:17:38.901Z,100574.94
2019-04-25T01:20:10.124Z,100559.14
2019-04-25T01:22:40.674Z,100562.19
2019-04-25T01:25:13.728Z,100568.30
2019-04-25T01:27:44.543Z,100561.25
2019-04-25T01:30:16.456Z,100566.11
2019-04-25T01:32:46.821Z,100572.18
2019-04-25T01:35:26.550Z,100583.14
2019-04-25T01:38:10.980Z,100588.80
2019-04-25T01:41:18.443Z,100579.59
2019-04-25T01:43:59.711Z,100570.79
2019-04-25T01:46:30.539Z,100565.52
2019-04-25T01:49:00.934Z,100574.27
2019-04-25T01:51:31.269Z,100576.84
2019-04-25T01:54:01.645Z,100576.42
2019-04-25T01:56:33.258Z,100571.17
2019-04-25T01:59:03.993Z,100561.97
2019-04-25T02:01:36.141Z,100557.14
2019-04-25T02:04:07.635Z,100551.91
2019-04-25T02:06:38.235Z,100551.11
2019-04-25T02:09:11.689Z,100559.09
2019-04-25T02:11:52.996Z,100560.98
2019-04-25T02:14:24.665Z,100557.55
2019-04-25T02:16:56.303Z,100572.11
2019-04-25T02:19:27.179Z,100577.88
2019-04-25T02:21:57.853Z,100580.55
2019-04-25T02:24:28.800Z,100578.48
2019-04-25T02:26:59.387Z,100573.33
2019-04-25T02:29:29.861Z,100579.97
2019-04-25T02:32:02.905Z,100575.22
2019-04-25T02:34:34.615Z,100580.59
2019-04-25T02:37:09.482Z,100586.35
2019-04-25T02:39:38.735Z,100594.73
2019-04-25T02:42:09.167Z,100593.05
2019-04-25T02:44:44.525Z,100602.75
2019-04-25T02:47:34.684Z,100600.63
2019-04-25T02:50:24.714Z,100612.91
2019-04-25T02:53:07.459Z,100612.98
2019-04-25T02:55:38.049Z,100613.92
2019-04-25T02:58:10.208Z,100617.45
2019-04-25T03:00:52.609Z,100618.35
2019-04-25T03:03:14.907Z,100610.51
2019-04-25T03:05:47.727Z,100602.22
2019-04-25T03:08:17.692Z,100602.67
2019-04-25T03:10:48.516Z,100604.02
2019-04-25T03:13:18.880Z,100595.77
2019-04-25T03:15:52.594Z,100601.05
2019-04-25T03:18:24.823Z,100606.74
2019-04-25T03:21:17.648Z,100591.47
2019-04-25T03:23:49.350Z,100590.19
2019-04-25T03:26:19.860Z,100599.37
2019-04-25T03:28:50.145Z,100593.70
2019-04-25T03:31:23.077Z,100587.62
2019-04-25T03:33:55.581Z,100585.45
2019-04-25T03:36:24.914Z,100585.02
2019-04-25T03:38:55.311Z,100585.47
2019-04-25T03:41:25.672Z,100576.77
2019-04-25T03:43:55.989Z,100566.72
2019-04-25T03:46:26.347Z,100567.64
2019-04-25T03:49:01.222Z,100570.70
2019-04-25T03:51:36.271Z,100573.35
2019-04-25T03:54:08.522Z,100575.55
2019-04-25T03:56:49.867Z,100578.17
2019-04-25T03:59:14.199Z,100571.64
2019-04-25T04:01:44.010Z,100575.53
2019-04-25T04:04:16.322Z,100579.06
2019-04-25T04:06:47.085Z,100591.33
2019-04-25T04:09:17.352Z,100606.64
2019-04-25T04:11:47.606Z,100607.09
2019-04-25T04:14:17.738Z,100607.98
2019-04-25T04:17:06.732Z,100601.86
2019-04-25T04:19:45.926Z,100608.41
2019-04-25T04:22:24.122Z,100623.27
2019-04-25T04:24:56.511Z,100623.30
2019-04-25T04:27:26.842Z,100630.29
2019-04-25T04:29:57.110Z,100631.16
2019-04-25T04:32:27.195Z,100624.19
2019-04-25T04:34:57.504Z,100625.91
2019-04-25T04:37:27.712Z,100604.09
2019-04-25T04:39:57.973Z,100624.19
2019-04-25T04:42:28.399Z,100629.42
2019-04-25T04:44:58.657Z,100634.23
2019-04-25T04:47:28.804Z,100634.66
2019-04-25T04:49:59.016Z,100626.32
2019-04-25T04:52:29.131Z,100632.44
2019-04-25T04:55:07.750Z,100626.30
2019-04-25T04:57:35.562Z,100638.12
2019-04-25T05:00:03.867Z,100652.09
2019-04-25T05:03:08.177Z,100662.12
2019-04-25T05:05:45.638Z,100669.97
2019-04-25T05:08:21.979Z,100667.36
2019-04-25T05:10:52.284Z,100664.27
2019-04-25T05:13:24.158Z,100672.11
2019-04-25T05:15:54.588Z,100666.84
2019-04-25T05:18:34.539Z,100658.09
2019-04-25T05:20:56.875Z,100658.52
2019-04-25T05:23:27.408Z,100664.17
2019-04-25T05:25:57.796Z,100664.15
2019-04-25T05:28:28.024Z,100669.38
2019-04-25T05:31:11.468Z,100671.08
2019-04-25T05:33:43.539Z,100671.09
2019-04-25T05:36:15.071Z,100676.31
2019-04-25T05:38:45.862Z,100670.14
2019-04-25T05:41:25.205Z,100654.77
2019-04-25T05:43:56.020Z,100663.94
2019-04-25T05:46:26.348Z,100657.75
2019-04-25T05:48:56.584Z,100654.64
2019-04-25T05:51:26.846Z,100651.08
2019-04-25T05:53:57.172Z,100647.96
2019-04-25T05:56:28.283Z,100633.02
2019-04-25T05:58:58.558Z,100638.19
2019-04-25T06:01:30.117Z,100637.69
2019-04-25T06:04:00.459Z,100634.08
2019-04-25T06:06:30.899Z,100628.77
2019-04-25T06:09:11.425Z,100642.27
2019-04-25T06:11:53.366Z,100650.06
2019-04-25T06:14:25.141Z,100649.51
2019-04-25T06:16:59.118Z,100658.61
2019-04-25T06:19:43.559Z,100667.73
2019-04-25T06:22:19.924Z,100677.30
2019-04-25T06:24:56.601Z,100683.75
2019-04-25T06:27:35.156Z,100685.81
2019-04-25T06:30:22.476Z,100694.91
2019-04-25T06:32:53.365Z,100697.90
2019-04-25T06:35:25.169Z,100697.25
2019-04-25T06:37:56.308Z,100690.19
2019-04-25T06:40:29.421Z,100694.00
2019-04-25T06:42:59.468Z,100680.64
2019-04-25T06:45:46.375Z,100688.27
2019-04-25T06:48:47.964Z,100682.33
2019-04-25T06:51:18.663Z,100685.50
2019-04-25T06:53:49.233Z,100700.98
2019-04-25T06:56:19.704Z,100702.67
2019-04-25T06:58:50.228Z,100701.36
2019-04-25T07:01:22.137Z,100699.87
2019-04-25T07:03:56.064Z,100697.63
2019-04-25T07:06:27.212Z,100701.98
2019-04-25T07:08:57.829Z,100702.07
2019-04-25T07:11:28.454Z,100703.12
2019-04-25T07:13:59.056Z,100712.23
2019-04-25T07:16:29.584Z,100704.96
2019-04-25T07:19:00.213Z,100712.00
2019-04-25T07:21:30.835Z,100712.64
2019-04-25T07:24:05.707Z,100706.31
2019-04-25T07:26:53.805Z,100713.75
2019-04-25T07:29:49.036Z,100694.75
2019-04-25T07:32:38.894Z,100705.02
2019-04-25T07:35:09.361Z,100728.42
2019-04-25T07:37:41.761Z,100733.31
2019-04-25T07:40:13.975Z,100727.09
2019-04-25T07:42:44.909Z,100721.43
2019-04-25T07:45:16.651Z,100720.08
2019-04-25T07:47:47.255Z,100720.17
2019-04-25T07:50:18.114Z,100719.19
2019-04-25T07:52:48.667Z,100716.25
2019-04-25T07:55:19.117Z,100716.15
2019-04-25T07:57:49.581Z,100734.02
2019-04-25T08:00:20.588Z,100729.86
2019-04-25T08:02:51.141Z,100732.20
2019-04-25T08:05:21.702Z,100736.91
2019-04-25T08:07:53.608Z,100738.88
2019-04-25T08:10:27.989Z,100746.05
2019-04-25T08:12:58.627Z,100747.55
2019-04-25T08:15:37.071Z,100741.05
2019-04-25T08:18:09.012Z,100730.09
2019-04-25T08:20:43.408Z,100728.20
2019-04-25T08:23:13.977Z,100734.88
2019-04-25T08:25:44.738Z,100734.98
2019-04-25T08:28:15.430Z,100726.45
2019-04-25T08:30:46.014Z,100731.14
2019-04-25T08:33:16.521Z,100720.33
2019-04-25T08:36:03.535Z,100729.55
2019-04-25T08:38:19.825Z,100722.38
2019-04-25T08:40:50.403Z,100727.27
2019-04-25T08:43:20.724Z,100729.62
2019-04-25T08:45:51.304Z,100735.58
2019-04-25T08:48:24.675Z,100731.66
2019-04-25T08:51:11.486Z,100744.92
2019-04-25T08:53:49.613Z,100732.84
2019-04-25T08:56:25.342Z,100747.25
2019-04-25T08:59:17.762Z,100754.99
2019-04-25T09:02:04.407Z,100778.77
2019-04-25T09:04:59.570Z,100803.39
2019-04-25T09:10:06.226Z,100803.02
2019-04-25T09:12:44.255Z,100794.83
2019-04-25T09:15:19.940Z,100795.06
2019-04-25T09:17:54.779Z,100783.73
2019-04-25T09:20:29.617Z,100794.45
2019-04-25T09:23:03.344Z,100794.57
2019-04-25T09:25:38.635Z,100782.96
2019-04-25T09:28:14.267Z,100772.67
2019-04-25T09:30:51.655Z,100761.23
2019-04-25T09:33:28.698Z,100763.80
2019-04-25T09:36:06.920Z,100773.74
2019-04-25T09:38:38.950Z,100782.94
2019-04-25T09:41:09.244Z,100784.16
2019-04-25T09:46:21.901Z,100775.91
2019-04-25T09:49:17.519Z,100771.03
2019-04-25T09:51:58.527Z,100778.19
2019-04-25T09:54:38.032Z,100787.88
2019-04-25T09:57:27.565Z,100792.14
2019-04-25T09:59:57.958Z,100796.63
2019-04-25T10:02:28.523Z,100801.71
2019-04-25T10:04:59.117Z,100788.41
2019-04-25T10:07:29.722Z,100786.88
2019-04-25T10:10:00.371Z,100801.80
2019-04-25T10:12:31.085Z,100813.80
2019-04-25T10:15:16.452Z,100811.14
2019-04-25T10:17:47.127Z,100803.91
2019-04-25T10:20:19.559Z,100801.88
2019-04-25T10:22:50.120Z,100794.30
2019-04-25T10:25:20.916Z,100784.95
2019-04-25T10:27:52.311Z,100779.95
2019-04-25T10:30:25.923Z,100773.77
2019-04-25T10:32:56.010Z,100762.27
2019-04-25T10:35:26.522Z,100765.27
2019-04-25T10:37:56.970Z,100774.93
2019-04-25T10:40:28.539Z,100781.59
2019-04-25T10:42:59.513Z,100776.27
2019-04-25T10:45:30.156Z,100767.73
2019-04-25T10:48:00.893Z,100783.31
2019-04-25T10:50:31.501Z,100775.47
2019-04-25T10:53:04.015Z,100776.77
2019-04-25T10:55:34.885Z,100780.55
2019-04-25T10:58:05.501Z,100777.66
2019-04-25T11:00:40.530Z,100774.95
2019-04-25T11:03:28.544Z,100774.66
2019-04-25T11:05:59.237Z,100769.05
2019-04-25T11:08:29.947Z,100771.94
2019-04-25T11:11:01.054Z,100762.70
2019-04-25T11:13:31.612Z,100762.45
2019-04-25T11:16:03.500Z,100762.67
2019-04-25T11:18:34.115Z,100769.91
2019-04-25T11:21:06.102Z,100777.93
2019-04-25T11:23:36.771Z,100768.67
2019-04-25T11:26:07.641Z,100769.84
2019-04-25T11:28:39.850Z,100767.16
2019-04-25T11:31:14.410Z,100770.72
2019-04-25T11:33:45.060Z,100768.43
2019-04-25T11:36:15.854Z,100747.69
2019-04-25T11:39:04.201Z,100748.66
2019-04-25T11:41:34.927Z,100750.59
2019-04-25T11:44:05.968Z,100743.47
2019-04-25T11:46:39.245Z,100731.16
2019-04-25T11:49:09.021Z,100727.00
2019-04-25T11:51:39.660Z,100724.29
2019-04-25T11:54:10.288Z,100720.85
2019-04-25T11:56:42.639Z,100726.62
2019-04-25T11:59:15.750Z,100734.87
2019-04-25T12:01:47.636Z,100728.57
2019-04-25T12:04:18.492Z,100727.64
2019-04-25T12:09:17.764Z,100714.09
2019-04-25T12:11:48.595Z,100713.69
2019-04-25T12:14:19.503Z,100709.73
2019-04-25T12:16:51.525Z,100698.82
2019-04-25T12:19:33.134Z,100695.27
2019-04-25T12:21:56.748Z,100687.83
2019-04-25T12:24:26.930Z,100680.69
2019-04-25T12:26:57.761Z,100672.17
2019-04-25T12:29:28.435Z,100670.92
2019-04-25T12:31:59.041Z,100675.23
2019-04-25T12:34:29.597Z,100675.83
2019-04-25T12:37:00.221Z,100674.25
2019-04-25T12:39:30.968Z,100687.41
2019-04-25T12:42:01.783Z,100697.30
2019-04-25T12:44:54.930Z,100699.36
2019-04-25T12:47:27.350Z,100692.25
2019-04-25T12:49:59.342Z,100689.52
2019-04-25T12:52:30.040Z,100703.48
2019-04-25T12:55:00.566Z,100716.44
2019-04-25T12:57:31.196Z,100699.32
2019-04-25T13:00:04.037Z,100693.09
2019-04-25T13:02:36.575Z,100686.59
2019-04-25T13:05:08.543Z,100708.36
2019-04-25T13:07:39.099Z,100687.53
2019-04-25T13:12:36.783Z,100689.13
2019-04-25T13:15:08.706Z,100691.08
2019-04-25T13:17:40.225Z,100687.28
2019-04-25T13:20:12.386Z,100686.91
2019-04-25T13:22:43.325Z,100693.14
2019-04-25T13:25:15.682Z,100698.11
2019-04-25T13:27:58.474Z,100699.02
2019-04-25T13:33:34.547Z,100679.52
2019-04-25T13:36:08.478Z,100683.56
2019-04-25T13:38:39.139Z,100690.45
2019-04-25T13:41:09.677Z,100693.88
2019-04-25T13:43:40.422Z,100698.24
2019-04-25T13:46:13.862Z,100694.11
2019-04-25T13:48:43.297Z,100693.94
2019-04-25T13:51:14.207Z,100683.78
2019-04-25T13:53:44.976Z,100684.36
2019-04-25T13:56:15.615Z,100671.53
2019-04-25T13:58:46.320Z,100663.34
2019-04-25T14:01:17.645Z,100659.70
2019-04-25T14:03:48.335Z,100672.08
2019-04-25T14:06:18.834Z,100684.00
2019-04-25T14:08:49.269Z,100676.16
2019-04-25T14:11:20.568Z,100670.06
2019-04-25T14:16:40.918Z,100655.62
2019-04-25T14:19:42.291Z,100647.67
2019-04-25T14:22:13.120Z,100666.82
2019-04-25T14:24:46.216Z,100645.42
2019-04-25T14:27:19.524Z,100657.37
2019-04-25T14:29:53.573Z,100652.72
2019-04-25T14:32:31.107Z,100659.12
2019-04-25T14:35:03.954Z,100662.69
2019-04-25T14:37:39.525Z,100658.78
2019-04-25T14:40:10.345Z,100667.63
2019-04-25T14:42:43.417Z,100657.06
2019-04-25T14:45:16.666Z,100660.10
2019-04-25T14:47:49.669Z,100650.86
2019-04-25T14:50:22.151Z,100653.02
2019-04-25T14:52:54.782Z,100639.01
2019-04-25T14:55:41.984Z,100639.66
2019-04-25T14:58:17.158Z,100628.72
2019-04-25T15:00:49.446Z,100621.92
2019-04-25T15:03:24.035Z,100633.34
2019-04-25T15:05:54.466Z,100618.09
2019-04-25T15:08:24.952Z,100626.09
2019-04-25T15:10:55.479Z,100621.22
2019-04-25T15:13:25.840Z,100616.95
2019-04-25T15:15:56.263Z,100624.78
2019-04-25T15:18:26.758Z,100625.45
2019-04-25T15:20:57.033Z,100622.25
2019-04-25T15:23:27.381Z,100615.56
2019-04-25T15:25:57.650Z,100623.89
2019-04-25T15:28:27.831Z,100629.25
2019-04-25T15:30:58.181Z,100634.00
2019-04-25T15:33:28.444Z,100623.81
2019-04-25T15:36:16.563Z,100624.98
2019-04-25T15:38:54.909Z,100632.70
2019-04-25T15:41:34.890Z,100633.17
2019-04-25T15:44:27.047Z,100621.45
2019-04-25T15:46:58.715Z,100631.81
2019-04-25T15:49:28.991Z,100634.59
2019-04-25T15:51:59.366Z,100635.58
2019-04-25T15:54:29.669Z,100639.16
2019-04-25T15:56:59.808Z,100640.37
2019-04-25T15:59:30.762Z,100637.92
2019-04-25T16:02:08.016Z,100630.98
2019-04-25T16:04:34.525Z,100639.84
2019-04-25T16:07:07.223Z,100633.48
2019-04-25T16:09:37.798Z,100640.59
2019-04-25T16:12:09.305Z,100636.11
2019-04-25T16:14:41.857Z,100633.25
2019-04-25T16:17:14.518Z,100636.87
2019-04-25T16:19:51.329Z,100646.11
2019-04-25T16:22:21.896Z,100642.73
2019-04-25T16:24:52.647Z,100652.56
2019-04-25T16:27:23.276Z,100654.37
2019-04-25T16:29:53.791Z,100656.88
2019-04-25T16:32:25.164Z,100675.23
2019-04-25T16:34:59.195Z,100682.92
2019-04-25T16:37:30.347Z,100683.98
2019-04-25T16:40:00.951Z,100679.38
2019-04-25T16:42:31.684Z,100657.77
2019-04-25T16:45:02.369Z,100677.11
2019-04-25T16:47:33.117Z,100679.60
2019-04-25T16:50:04.071Z,100676.92
2019-04-25T16:52:34.510Z,100687.59
2019-04-25T16:55:05.223Z,100703.61
2019-04-25T16:57:35.613Z,100712.46
2019-04-25T17:00:10.847Z,100717.67
2019-04-25T17:02:42.271Z,100717.38
2019-04-25T17:05:13.167Z,100711.87
2019-04-25T17:07:43.415Z,100729.29
2019-04-25T17:10:13.928Z,100729.34
2019-04-25T17:12:44.212Z,100736.98
2019-04-25T17:15:26.728Z,100730.66
2019-04-25T17:18:09.736Z,100736.58
2019-04-25T17:20:44.274Z,100741.01
2019-04-25T17:23:14.830Z,100742.83
2019-04-25T17:25:45.242Z,100754.60
2019-04-25T17:28:17.444Z,100750.30
2019-04-25T17:30:49.383Z,100751.41
2019-04-25T17:33:34.246Z,100749.39
2019-04-25T17:36:10.394Z,100747.70
2019-04-25T17:38:44.086Z,100749.52
2019-04-25T17:41:17.179Z,100747.14
2019-04-25T17:43:47.399Z,100762.91
2019-04-25T17:46:19.739Z,100762.52
2019-04-25T17:48:49.983Z,100761.16
2019-04-25T17:51:20.447Z,100764.09
2019-04-25T17:53:50.748Z,100756.80
2019-04-25T17:56:21.073Z,100760.58
2019-04-25T17:58:51.269Z,100767.97
2019-04-25T18:01:24.229Z,100768.14
2019-04-25T18:03:54.497Z,100769.68
2019-04-25T18:06:24.770Z,100776.06
2019-04-25T18:08:55.032Z,100771.95
2019-04-25T18:11:25.301Z,100771.42
2019-04-25T18:13:55.709Z,100773.10
2019-04-25T18:16:38.132Z,100775.66
2019-04-25T18:19:30.430Z,100778.69
2019-04-25T18:22:07.430Z,100782.64
2019-04-25T18:24:55.823Z,100777.65
2019-04-25T18:27:30.558Z,100777.06
2019-04-25T18:30:06.075Z,100788.70
2019-04-25T18:32:39.709Z,100789.44
2019-04-25T18:35:21.798Z,100802.47
2019-04-25T18:38:15.708Z,100811.44
2019-04-25T18:41:09.483Z,100813.30
2019-04-25T18:43:46.930Z,100810.33
2019-04-25T18:46:24.982Z,100812.70
2019-04-25T18:48:57.598Z,100820.73
2019-04-25T18:54:26.214Z,100813.28
2019-04-25T18:57:26.677Z,100811.35
2019-04-25T19:00:16.639Z,100807.84
2019-04-25T19:03:35.283Z,100810.88
2019-04-25T19:06:12.024Z,100815.72
2019-04-25T19:08:54.208Z,100822.78
2019-04-25T19:11:25.570Z,100821.50
2019-04-25T19:13:56.310Z,100837.11
2019-04-25T19:16:27.985Z,100841.19
2019-04-25T19:18:58.614Z,100844.78
2019-04-25T19:23:58.742Z,100843.81
2019-04-25T19:26:30.295Z,100843.98
2019-04-25T19:29:00.817Z,100838.92
2019-04-25T19:31:31.566Z,100843.41
2019-04-25T19:34:02.153Z,100846.34
2019-04-25T19:36:33.055Z,100845.55
2019-04-25T19:39:05.352Z,100847.98
2019-04-25T19:42:00.529Z,100856.43
2019-04-25T19:44:31.248Z,100850.27
2019-04-25T19:47:01.695Z,100847.19
2019-04-25T19:49:32.360Z,100863.92
2019-04-25T19:52:05.819Z,100873.20
2019-04-25T19:54:36.447Z,100876.29
2019-04-25T19:57:08.470Z,100867.05
2019-04-25T19:59:44.763Z,100854.24
2019-04-25T20:02:44.618Z,100852.98
2019-04-25T20:05:35.411Z,100866.88
2019-04-25T20:08:28.129Z,100863.63
2019-04-25T20:11:22.288Z,100851.45
2019-04-25T20:16:47.672Z,100873.75
2019-04-25T20:19:19.603Z,100885.72
2019-04-25T20:21:52.045Z,100898.50
2019-04-25T20:24:23.210Z,100910.50
2019-04-25T20:26:54.628Z,100917.55
2019-04-25T20:29:28.554Z,100923.35
2019-04-25T20:31:58.836Z,100926.46
2019-04-25T20:34:29.434Z,100935.28
2019-04-25T20:36:59.965Z,100946.89
2019-04-25T20:39:31.379Z,100946.18
2019-04-25T20:42:01.926Z,100944.02
2019-04-25T20:44:32.477Z,100937.97
2019-04-25T20:47:03.040Z,100933.66
2019-04-25T20:49:33.608Z,100939.53
2019-04-25T20:52:04.163Z,100957.53
2019-04-25T20:54:34.759Z,100960.47
2019-04-25T20:57:05.427Z,100964.34
2019-04-25T20:59:36.059Z,100960.72
2019-04-25T21:02:34.764Z,100964.84
2019-04-25T21:05:05.630Z,100986.98
2019-04-25T21:07:36.300Z,100989.03
2019-04-25T21:10:09.558Z,100994.46
2019-04-25T21:12:40.143Z,100993.69
2019-04-25T21:15:19.701Z,100992.67
2019-04-25T21:18:15.287Z,101007.81
2019-04-25T21:20:45.870Z,101018.04
2019-04-25T21:23:16.489Z,101000.63
2019-04-25T21:25:47.778Z,100985.77
2019-04-25T21:28:18.117Z,100978.90
2019-04-25T21:30:52.458Z,100983.84
2019-04-25T21:33:23.274Z,100978.63
2019-04-25T21:35:54.081Z,100961.09
2019-04-25T21:38:27.276Z,100949.28
2019-04-25T21:41:19.429Z,100945.33
2019-04-25T21:43:54.187Z,100946.66
2019-04-25T21:46:24.902Z,100945.72
2019-04-25T21:48:55.564Z,100939.06
2019-04-25T21:51:32.422Z,100938.08
2019-04-25T21:54:04.087Z,100937.63
2019-04-25T21:56:34.747Z,100942.50
2019-04-25T22:01:38.901Z,100968.36
2019-04-25T22:04:10.691Z,100985.06
2019-04-25T22:06:41.514Z,100980.63
2019-04-25T22:09:17.545Z,100971.78
2019-04-25T22:11:48.728Z,100963.81
2019-04-25T22:14:19.663Z,100976.07
2019-04-25T22:16:50.677Z,100951.34
2019-04-25T22:19:22.074Z,100942.89
2019-04-25T22:21:53.072Z,100938.02
2019-04-25T22:24:23.680Z,100940.24
2019-04-25T22:26:56.445Z,100949.87
2019-04-25T22:29:28.367Z,100952.06
2019-04-25T22:32:17.718Z,100959.11
2019-04-25T22:35:07.846Z,100960.89
2019-04-25T22:37:38.353Z,100960.50
2019-04-25T22:40:09.202Z,100965.39
2019-04-25T22:42:39.643Z,100959.78
2019-04-25T22:45:09.990Z,100960.31
2019-04-25T22:47:40.275Z,100957.80
2019-04-25T22:50:10.865Z,100972.37
2019-04-25T22:52:41.480Z,100965.38
2019-04-25T22:55:12.434Z,100956.20
2019-04-25T22:57:42.876Z,100961.48
2019-04-25T23:00:27.122Z,100956.27
2019-04-25T23:03:05.532Z,100956.73
2019-04-25T23:05:40.616Z,100946.65
2019-04-25T23:08:11.434Z,100951.05
2019-04-25T23:10:41.812Z,100960.70
2019-04-25T23:13:13.317Z,100970.78
2019-04-25T23:15:43.583Z,100961.14
2019-04-25T23:18:14.022Z,100962.00
2019-04-25T23:20:44.492Z,100947.45
2019-04-25T23:23:15.250Z,100957.59
2019-04-25T23:26:23.868Z,100954.52
2019-04-25T23:28:54.231Z,100957.14
2019-04-25T23:31:28.263Z,100951.41
2019-04-25T23:33:58.661Z,100950.99
2019-04-25T23:36:29.073Z,100948.75
2019-04-25T23:38:59.397Z,100946.97
2019-04-25T23:41:30.212Z,100946.92
2019-04-25T23:44:00.643Z,100948.64
2019-04-25T23:46:31.392Z,100949.08
2019-04-25T23:49:01.724Z,100938.08
2019-04-25T23:51:32.433Z,100949.90
2019-04-25T23:54:03.390Z,100951.61
2019-04-25T23:56:33.890Z,100943.23
2019-04-25T23:59:04.945Z,100955.50
